Time;durP1;ratioP1;P1;durP2;ratioP2;P2;SDS_P1;SDS_P2;PMS_P1;PMS_P2;Temp;Humidity;BMP_temperature;BMP_pressure;BME280_temperature;BME280_humidity;BME280_pressure;Samples;Min_cycle;Max_cycle;Signal;HPM_P1;HPM_P2
2022/07/29 00:01:29;;;;;;;;;;;;;;;17.10;56.93;101762.44;4933251;28;119904;-83
2022/07/29 00:03:55;;;;;;;;;;;;;;;17.06;56.70;101751.53;4931600;28;119858;-83
2022/07/29 00:06:20;;;;;;;;;;;;;;;17.05;56.98;101766.63;4933108;28;120038;-83
2022/07/29 00:08:46;;;;;;;;;;;;;;;17.05;56.91;101763.09;4950409;28;119916;-83
2022/07/29 00:11:11;;;;;;;;;;;;;;;17.01;56.92;101763.25;4930009;28;121495;-83
2022/07/29 00:13:37;;;;;;;;;;;;;;;16.99;56.89;101757.41;4952628;28;120084;-83
2022/07/29 00:16:03;;;;;;;;;;;;;;;16.98;57.08;101758.63;4952804;28;119825;-82
2022/07/29 00:18:34;;;;;;;;;;;;;;;16.99;56.92;101754.63;4947012;28;120366;-83
2022/07/29 00:20:59;;;;;;;;;;;;;;;17.00;57.04;101756.16;4940847;28;119763;-83
2022/07/29 00:23:25;;;;;;;;;;;;;;;17.00;57.17;101758.94;4930947;28;120044;-83
2022/07/29 00:25:59;;;;;;;;;;;;;;;17.01;57.05;101752.16;4946647;28;120102;-83
2022/07/29 00:28:32;;;;;;;;;;;;;;;17.01;57.34;101743.84;4946795;28;120961;-83
2022/07/29 00:30:58;;;;;;;;;;;;;;;17.03;57.29;101752.44;4944648;28;123566;-83
2022/07/29 00:33:56;;;;;;;;;;;;;;;17.02;57.34;101759.22;4905435;28;119631;-83
2022/07/29 00:36:21;;;;;;;;;;;;;;;17.02;57.42;101761.22;4928503;28;119886;-83
2022/07/29 00:38:48;;;;;;;;;;;;;;;17.00;57.27;101761.72;4933834;28;123639;-83
2022/07/29 00:41:14;;;;;;;;;;;;;;;16.99;57.44;101759.41;4933766;28;120418;-82
2022/07/29 00:43:39;;;;;;;;;;;;;;;16.96;57.38;101766.66;4928329;28;120384;-83
2022/07/29 00:46:05;;;;;;;;;;;;;;;16.95;57.72;101762.34;4948127;28;121228;-83
2022/07/29 00:48:30;;;;;;;;;;;;;;;16.97;57.32;101765.41;4949223;28;122403;-83
2022/07/29 00:50:59;;;;;;;;;;;;;;;16.98;57.51;101755.88;4930438;28;122986;-83
2022/07/29 00:53:50;;;;;;;;;;;;;;;16.99;57.50;101768.50;4871981;28;119956;-83
2022/07/29 00:56:16;;;;;;;;;;;;;;;16.99;57.53;101765.72;4939202;28;121950;-83
2022/07/29 00:58:42;;;;;;;;;;;;;;;16.99;57.51;101768.50;4947953;28;123014;-82
2022/07/29 01:01:07;;;;;;;;;;;;;;;17.01;57.61;101771.56;4920957;28;121063;-83
2022/07/29 01:03:32;;;;;;;;;;;;;;;17.02;57.57;101767.56;4937262;28;121783;-83
2022/07/29 01:05:59;;;;;;;;;;;;;;;17.02;57.55;101767.56;4933584;28;121111;-83
2022/07/29 01:08:24;;;;;;;;;;;;;;;17.03;57.60;101771.09;4931181;28;121950;-83
2022/07/29 01:10:50;;;;;;;;;;;;;;;17.01;57.77;101768.78;4931638;28;122364;-83
2022/07/29 01:13:16;;;;;;;;;;;;;;;17.00;57.80;101761.72;4931325;28;120742;-83
2022/07/29 01:15:47;;;;;;;;;;;;;;;16.99;57.97;101760.16;4931221;28;119764;-83
2022/07/29 01:18:26;;;;;;;;;;;;;;;16.98;57.64;101761.41;4941337;28;119820;-83
2022/07/29 01:20:52;;;;;;;;;;;;;;;16.95;57.63;101759.56;4931474;28;119762;-83
2022/07/29 01:23:38;;;;;;;;;;;;;;;16.93;57.79;101759.28;4934177;28;121718;-83
2022/07/29 01:26:18;;;;;;;;;;;;;;;16.90;57.81;101759.47;4946057;28;121204;-83
2022/07/29 01:28:47;;;;;;;;;;;;;;;16.86;58.09;101762.41;4940348;28;122108;-82
2022/07/29 01:31:16;;;;;;;;;;;;;;;16.84;57.89;101759.34;4931377;28;122744;-83
2022/07/29 01:33:49;;;;;;;;;;;;;;;16.80;57.85;101761.50;4951001;28;119682;-83
2022/07/29 01:36:23;;;;;;;;;;;;;;;16.76;58.11;101756.09;4931929;28;122172;-83
2022/07/29 01:38:53;;;;;;;;;;;;;;;16.76;58.34;101753.34;4946891;28;120444;-83
2022/07/29 01:41:20;;;;;;;;;;;;;;;16.76;58.50;101752.56;4948839;28;119855;-84
2022/07/29 01:43:49;;;;;;;;;;;;;;;16.73;58.13;101751.50;4944214;28;122299;-83
2022/07/29 01:46:21;;;;;;;6.95;2.90;;;;;;;16.70;58.50;101746.91;4923799;28;122580;-82
2022/07/29 01:48:54;;;;;;;5.28;2.92;;;;;;;16.68;59.57;101737.53;4932740;28;122435;-83
2022/07/29 01:51:23;;;;;;;;;;;;;;;16.73;58.95;101739.66;4948949;28;120102;-83
2022/07/29 01:54:15;;;;;;;;;;;;;;;16.73;58.64;101742.44;4945178;28;119996;-84
2022/07/29 01:56:42;;;;;;;;;;;;;;;16.70;58.83;101735.06;4930193;28;120084;-84
2022/07/29 01:59:09;;;;;;;;;;;;;;;16.66;58.27;101735.22;4931350;28;122950;-83
2022/07/29 02:01:35;;;;;;;;;;;;;;;16.63;58.51;101730.59;4949996;28;120284;-83
2022/07/29 02:04:06;;;;;;;;;;;;;;;16.60;58.68;101737.06;4932239;28;121406;-83
2022/07/29 02:06:33;;;;;;;;;;;;;;;16.56;58.85;101741.97;4932239;28;123546;-83
2022/07/29 02:09:06;;;;;;;;;;;;;;;16.50;58.89;101732.78;4938714;28;119642;-83
2022/07/29 02:11:33;;;;;;;;;;;;;;;16.45;58.64;101730.63;4932185;28;123073;-83
2022/07/29 02:14:00;;;;;;;;;;;;;;;16.40;58.75;101732.03;4951123;28;119973;-83
2022/07/29 02:16:30;;;;;;;;;;;;;;;16.37;58.85;101735.75;4934014;28;121579;-82
2022/07/29 02:19:32;;;;;;;;;;;;;;;16.31;58.82;101725.72;4870974;28;120340;-83
2022/07/29 02:21:58;;;;;;;;;;;;;;;16.27;59.13;101737.75;4946011;28;119670;-83
2022/07/29 02:24:25;;;;;;;;;;;;;;;16.24;59.14;101741.44;4941681;28;121346;-83
2022/07/29 02:26:52;;;;;;;;;;;;;;;16.21;59.29;101736.06;4931480;28;122394;-84
2022/07/29 02:29:20;;;;;;;;;;;;;;;16.19;59.29;101733.00;4930818;28;119775;-84
2022/07/29 02:31:47;;;;;;;;;;;;;;;16.16;59.28;101737.47;4934026;28;121167;-83
2022/07/29 02:34:12;;;;;;;;;;;;;;;16.13;59.27;101730.09;4946336;28;119482;-83
2022/07/29 02:36:39;;;;;;;;;;;;;;;16.11;59.51;101729.03;4945587;28;119517;-83
2022/07/29 02:39:04;;;;;;;;;;;;;;;16.08;59.30;101733.47;4930129;28;120019;-83
2022/07/29 02:41:35;;;;;;;;;;;;;;;16.05;59.32;101725.31;4930133;28;119920;-83
2022/07/29 02:44:06;;;;;;;;;;;;;;;16.05;59.78;101734.38;4949194;28;119795;-84
2022/07/29 02:46:33;;;;;;;;;;;;;;;16.07;59.69;101728.38;4942275;28;120482;-84
2022/07/29 02:49:03;;;;;;;;;;;;;;;16.07;59.60;101728.38;4946653;28;119564;-84
2022/07/29 02:51:33;;;;;;;;;;;;;;;16.06;59.89;101733.16;4948908;28;119737;-83
2022/07/29 02:54:01;;;;;;;;;;;;;;;16.07;60.00;101725.63;4909951;28;123393;-83
2022/07/29 02:56:28;;;;;;;;;;;;;;;16.07;59.98;101723.63;4933401;28;121269;-82
2022/07/29 02:58:55;;;;;;;;;;;;;;;16.08;60.25;101729.94;4932868;28;123091;-83
2022/07/29 03:01:22;;;;;;;;;;;;;;;16.09;60.43;101729.50;4954148;28;119533;-83
2022/07/29 03:03:48;;;;;;;;;;;;;;;16.11;60.51;101729.78;4952993;28;119535;-83
2022/07/29 03:06:16;;;;;;;;;;;;;;;16.13;60.60;101724.56;4934756;28;119975;-83
2022/07/29 03:08:42;;;;;;;;;;;;;;;16.15;60.50;101732.41;4949793;28;119464;-83
2022/07/29 03:11:08;;;;;;;;;;;;;;;16.14;60.59;101725.31;4934574;28;119471;-83
2022/07/29 03:13:34;;;;;;;;;;;;;;;16.12;60.56;101722.25;4934273;28;123010;-83
2022/07/29 03:16:00;;;;;;;;;;;;;;;16.10;60.59;101728.25;4940548;28;119940;-83
2022/07/29 03:18:26;;;;;;;;;;;;;;;16.11;60.94;101718.72;4931067;28;120712;-83
2022/07/29 03:20:52;;;;;;;;;;;;;;;16.17;61.43;101718.84;4943846;28;119892;-83
2022/07/29 03:23:23;;;;;;;;;;;;;;;16.20;61.50;101726.22;4934777;28;122177;-83
2022/07/29 03:25:49;;;;;;;;;;;;;;;16.23;61.32;101720.53;4950617;28;122634;-83
2022/07/29 03:28:15;;;;;;;;;;;;;;;16.25;61.67;101717.28;4926137;28;119840;-82
2022/07/29 03:30:40;;;;;;;;;;;;;;;16.27;61.71;101714.84;4952946;28;119625;-83
2022/07/29 03:33:06;;;;;;;;;;;;;;;16.28;61.52;101717.13;4950770;28;120815;-83
2022/07/29 03:35:31;;;;;;;;;;;;;;;16.31;61.64;101718.19;4936907;28;120291;-83
2022/07/29 03:37:58;;;;;;;;;;;;;;;16.34;62.06;101713.75;4937545;28;119740;-83
2022/07/29 03:40:30;;;;;;;;;;;;;;;16.32;61.98;101705.13;4933837;28;119716;-83
2022/07/29 03:42:56;;;;;;;;;;;;;;;16.33;62.09;101701.16;4937153;28;120079;-83
2022/07/29 03:45:23;;;;;;;;;;;;;;;16.36;61.99;101716.81;4934890;28;123585;-84
2022/07/29 03:47:56;;;;;;;;;;;;;;;16.41;61.99;101713.44;4952382;28;120022;-83
2022/07/29 03:50:22;;;;;;;;;;;;;;;16.47;61.90;101717.84;4950706;28;119632;-83
2022/07/29 03:52:48;;;;;;;;;;;;;;;16.51;61.86;101717.69;4917363;28;122768;-83
2022/07/29 03:55:14;;;;;;;;;;;;;;;16.51;62.10;101712.91;4952788;28;119843;-83
2022/07/29 03:57:40;;;;;;;;;;;;;;;16.55;61.83;101724.59;4938106;28;121721;-83
2022/07/29 04:00:06;;;;;;;;;;;;;;;16.57;62.06;101711.06;4945154;28;119615;-83
2022/07/29 04:02:32;;;;;;;;;;;;;;;16.58;62.10;101714.59;4948736;28;121743;-82
2022/07/29 04:04:57;;;;;;;;;;;;;;;16.54;62.37;101709.22;4946935;28;119885;-83
2022/07/29 04:07:23;;;;;;;;;;;;;;;16.60;62.19;101711.38;4946496;28;119641;-83
2022/07/29 04:09:48;;;;;;;;;;;;;;;16.65;62.45;101710.72;4950721;28;119737;-83
2022/07/29 04:12:14;;;;;;;;;;;;;;;16.71;62.54;101712.41;4952290;28;119892;-83
2022/07/29 04:14:39;;;;;;;;;;;;;;;16.72;62.91;101710.41;4947851;28;119897;-83
2022/07/29 04:17:05;;;;;;;;;;;;;;;16.77;62.70;101707.00;4932314;28;119906;-83
2022/07/29 04:19:31;;;;;;;;;;;;;;;16.85;62.74;101711.75;4950448;28;120277;-83
2022/07/29 04:21:57;;;;;;;;;;;;;;;16.91;62.87;101717.41;4951776;28;121480;-83
2022/07/29 04:24:22;;;;;;;;;;;;;;;16.98;62.67;101703.22;4934841;28;119866;-83
2022/07/29 04:26:48;;;;;;;;;;;;;;;17.06;62.57;101707.19;4935194;28;119623;-83
2022/07/29 04:29:14;;;;;;;;;;;;;;;17.16;62.60;101703.13;4943284;28;119711;-82
2022/07/29 04:31:40;;;;;;;;;;;;;;;17.24;62.74;101702.75;4931408;28;123089;-83
2022/07/29 04:34:37;;;;;;;;;;;;;;;17.30;62.64;101709.19;4935569;28;120368;-83
2022/07/29 04:37:03;;;;;;;;;;;;;;;17.34;62.67;101699.47;4949898;28;122392;-83
2022/07/29 04:39:28;;;;;;;;;;;;;;;17.41;62.70;101704.63;4944207;28;120508;-83
2022/07/29 04:41:54;;;;;;;;;;;;;;;17.49;62.48;101696.72;4937999;28;120075;-83
2022/07/29 04:44:19;;;;;;;;;;;;;;;17.55;62.61;101700.38;4946218;28;122869;-83
2022/07/29 04:46:45;;;;;;;;;;;;;;;17.63;62.73;101698.78;4932352;28;119590;-83
2022/07/29 04:49:10;;;;;;;;;;;;;;;17.71;62.66;101702.75;4949715;28;120052;-82
2022/07/29 04:51:36;;;;;;;;;;;;;;;17.75;62.74;101697.78;4949678;28;123375;-83
2022/07/29 04:54:01;;;;;;;;;;;;;;;17.84;62.39;101707.28;4947206;28;120534;-83
2022/07/29 04:56:27;;;;;;;;;;;;;;;17.90;62.43;101713.69;4930849;28;119633;-83
2022/07/29 04:58:52;;;;;;;;;;;;;;;17.94;62.54;101714.25;4929650;28;123314;-83
2022/07/29 05:01:29;;;;;;;;;;;;;;;17.98;62.15;101710.06;4949298;28;120005;-83
2022/07/29 05:03:54;;;;;;;;;;;;;;;18.02;62.25;101716.22;4953028;28;121778;-82
2022/07/29 05:06:20;;;;;;;;;;;;;;;18.06;62.41;101708.44;4949884;28;120024;-82
2022/07/29 05:08:45;;;;;;;;;;;;;;;18.12;62.37;101705.75;4950487;28;119614;-83
2022/07/29 05:11:11;;;;;;;;;;;;;;;18.14;62.20;101705.28;4950297;28;120305;-82
2022/07/29 05:13:36;;;;;;;;;;;;;;;18.19;62.09;101707.38;4933225;28;120019;-83
2022/07/29 05:16:02;;;;;;;;;;;;;;;18.22;62.00;101707.22;4931617;28;121842;-83
2022/07/29 05:18:28;;;;;;;;;;;;;;;18.26;61.95;101712.56;4914359;28;121184;-83
2022/07/29 05:20:53;;;;;;;;;;;;;;;18.31;61.99;101709.88;4932892;28;119676;-83
2022/07/29 05:23:36;;;;;;;;;;;;;;;18.38;62.06;101715.03;4938536;28;119775;-83
2022/07/29 05:26:02;;;;;;;;;;;;;;;18.42;62.23;101701.72;4953683;28;123909;-82
2022/07/29 05:28:27;;;;;;;;;;;;;;;18.46;62.21;101700.78;4950083;28;121952;-83
2022/07/29 05:30:53;;;;;;;;;;;;;;;18.52;62.14;101707.19;4950304;28;123537;-82
2022/07/29 05:33:18;;;;;;;;;;;;;;;18.57;62.33;101704.50;4937120;28;119913;-82
2022/07/29 05:35:46;;;;;;;;;;;;;;;18.66;62.30;101712.75;4951588;28;119654;-82
2022/07/29 05:38:12;;;;;;;;;;;;;;;18.74;62.36;101706.81;4950338;28;120423;-82
2022/07/29 05:40:37;;;;;;;;;;;;;;;18.79;62.10;101700.56;4947743;28;119607;-82
2022/07/29 05:43:03;;;;;;;;;;;;;;;18.84;62.37;101708.22;4932502;28;119335;-82
2022/07/29 05:45:28;;;;;;;;;;;;;;;18.92;62.40;101714.88;4945547;28;120682;-82
2022/07/29 05:47:54;;;;;;;;;;;;;;;18.96;62.35;101721.03;4935224;28;119950;-83
2022/07/29 05:50:19;;;;;;;;;;;;;;;18.98;62.41;101702.63;4918385;28;122663;-82
2022/07/29 05:52:45;;;;;;;;;;;;;;;19.06;62.48;101704.97;4950540;28;120066;-82
2022/07/29 05:55:11;;;;;;;;;;;;;;;19.14;62.59;101706.09;4933507;28;122277;-82
2022/07/29 05:57:36;;;;;;;;;;;;;;;19.21;62.54;101708.50;4930114;28;123118;-82
2022/07/29 06:00:03;;;;;;;;;;;;;;;19.27;62.82;101703.75;4942877;28;119956;-83
2022/07/29 06:02:40;;;;;;;;;;;;;;;19.32;62.44;101706.59;4932156;28;120657;-82
2022/07/29 06:05:08;;;;;;;;;;;;;;;19.40;62.34;101706.97;4945858;28;120424;-83
2022/07/29 06:07:34;;;;;;;;;;;;;;;19.54;62.37;101708.91;4950689;28;119788;-83
2022/07/29 06:09:59;;;;;;;;;;;;;;;19.64;62.03;101704.00;4930445;28;120430;-82
2022/07/29 06:12:26;;;;;;;;;;;;;;;19.72;61.98;101705.09;4931788;28;120980;-83
2022/07/29 06:14:51;;;;;;;;;;;;;;;19.82;61.99;101702.91;4924972;28;121970;-83
2022/07/29 06:17:17;;;;;;;;;;;;;;;19.93;61.52;101703.03;4931461;28;120270;-82
2022/07/29 06:19:42;;;;;;;;;;;;;;;20.03;61.42;101712.75;4933599;28;120209;-83
2022/07/29 06:22:08;;;;;;;;;;;;;;;20.10;60.69;101715.06;4939510;28;119697;-83
2022/07/29 06:24:33;;;;;;;;;;;;;;;20.16;60.54;101717.94;4945886;28;120556;-83
2022/07/29 06:26:59;;;;;;;;;;;;;;;20.24;60.41;101719.00;4935855;28;119743;-82
2022/07/29 06:29:24;;;;;;;;;;;;;;;20.37;60.21;101718.63;4957423;28;119640;-82
2022/07/29 06:32:16;;;;;;;;;;;;;;;20.55;60.13;101718.28;4952039;28;119807;-83
2022/07/29 06:34:44;;;;;;;;;;;;;;;20.65;59.18;101716.84;4936500;28;122625;-82
2022/07/29 06:37:10;;;;;;;;;;;;;;;20.71;58.79;101712.06;4950162;28;120441;-82
2022/07/29 06:39:36;;;;;;;;;;;;;;;20.79;58.34;101723.53;4969703;28;119631;-83
2022/07/29 06:42:02;;;;;;;;;;;;;;;20.85;58.07;101721.56;4953058;28;119849;-82
2022/07/29 06:44:27;;;;;;;;;;;;;;;20.90;58.00;101718.03;4946890;28;119968;-82
2022/07/29 06:46:56;;;;;;;;;;;;;;;20.98;57.85;101723.91;4951647;28;119968;-83
2022/07/29 06:49:24;;;;;;;;;;;;;;;21.07;57.86;101721.69;4954440;28;119859;-83
2022/07/29 06:52:09;;;;;;;;;;;;;;;21.17;57.60;101733.41;4936475;28;120337;-83
2022/07/29 06:54:35;;;;;;;;;;;;;;;21.22;56.92;101729.09;4945951;28;119833;-82
2022/07/29 06:57:00;;;;;;;;;;;;;;;21.26;57.08;101722.06;4934523;28;120600;-83
2022/07/29 06:59:26;;;;;;;;;;;;;;;21.32;56.96;101725.66;4919327;28;119939;-82
2022/07/29 07:02:14;;;;;;;;;;;;;;;21.41;56.88;101733.03;4933734;28;120608;-82
2022/07/29 07:04:40;;;;;;;;;;;;;;;21.49;56.79;101734.06;4931406;28;123035;-83
2022/07/29 07:07:05;;;;;;;;;;;;;;;21.56;56.72;101727.28;4952340;28;120333;-83
2022/07/29 07:09:31;;;;;;;;;;;;;;;21.60;56.52;101728.56;4952961;28;120237;-83
2022/07/29 07:11:56;;;;;;;;;;;;;;;21.64;56.03;101725.50;4931246;28;123294;-82
2022/07/29 07:14:22;;;;;;;;;;;;;;;21.65;55.63;101725.00;4943154;28;119696;-82
2022/07/29 07:16:47;;;;;;;;;;;;;;;21.68;55.60;101723.25;4953125;28;120405;-82
2022/07/29 07:19:13;;;;;;;;;;;;;;;21.69;55.27;101716.38;4949225;28;119868;-82
2022/07/29 07:21:38;;;;;;;;;;;;;;;21.70;55.05;101726.28;4932281;28;121575;-82
2022/07/29 07:24:04;;;;;;;;;;;;;;;21.70;55.04;101717.91;4945432;28;120552;-82
2022/07/29 07:26:30;;;;;;;;;;;;;;;21.76;55.31;101721.47;4940705;28;120040;-83
2022/07/29 07:28:55;;;;;;;;;;;;;;;21.82;55.15;101727.09;4938662;28;120539;-82
2022/07/29 07:31:21;;;;;;;;;;;;;;;21.87;54.98;101721.50;4929411;28;123540;-83
2022/07/29 07:33:46;;;;;;;;;;;;;;;21.96;55.07;101726.84;4952117;28;120138;-83
2022/07/29 07:36:14;;;;;;;;;;;;;;;22.02;54.65;101718.50;4949611;28;121641;-83
2022/07/29 07:38:40;;;;;;;;;;;;;;;22.09;54.48;101722.84;4950684;28;119900;-83
2022/07/29 07:41:06;;;;;;;;;;;;;;;22.18;54.90;101725.41;4918376;28;121459;-83
2022/07/29 07:43:31;;;;;;;;;;;;;;;22.25;54.25;101719.31;4936798;28;122844;-83
2022/07/29 07:45:57;;;;;;;;;;;;;;;22.26;53.70;101721.63;4961170;28;120048;-82
2022/07/29 07:48:22;;;;;;;;;;;;;;;22.27;53.42;101717.53;4961103;28;122066;-82
2022/07/29 07:50:49;;;;;;;;;;;;;;;22.31;53.61;101726.44;4946454;28;120349;-82
2022/07/29 07:53:14;;;;;;;;;;;;;;;22.34;53.34;101727.44;4947946;28;119649;-82
2022/07/29 07:55:41;;;;;;;;;;;;;;;22.40;53.21;101727.44;4951748;28;119892;-82
2022/07/29 07:58:06;;;;;;;;;;;;;;;22.50;53.08;101723.13;4928042;28;120448;-82
2022/07/29 08:00:32;;;;;;;;;;;;;;;22.57;52.57;101728.97;4939896;28;122359;-83
2022/07/29 08:02:58;;;;;;;;;;;;;;;22.66;52.97;101725.91;4949783;28;120956;-82
2022/07/29 08:05:23;;;;;;;;;;;;;;;22.82;53.13;101720.84;4957187;28;120810;-83
2022/07/29 08:07:49;;;;;;;;;;;;;;;22.96;52.49;101708.59;4947631;28;120125;-82
2022/07/29 08:10:51;;;;;;;;;;;;;;;23.16;52.83;101713.88;4963427;28;121640;-82
2022/07/29 08:13:02;;;;;;;;;;;;;;;23.41;52.20;101708.44;4949895;28;120496;-82
2022/07/29 08:15:27;;;;;;;;;;;;;;;23.61;50.44;101715.75;4966226;28;121819;-83
2022/07/29 08:17:53;;;;;;;;;;;;;;;23.74;49.95;101716.72;4957775;28;123171;-82
2022/07/29 08:20:18;;;;;;;;;;;;;;;23.93;49.17;101707.69;4964398;28;122942;-83
2022/07/29 08:22:44;;;;;;;;;;;;;;;24.12;49.28;101714.16;4948942;28;120363;-82
2022/07/29 08:25:10;;;;;;;;;;;;;;;24.36;49.23;101708.66;4951150;28;120483;-82
2022/07/29 08:27:38;;;;;;;;;;;;;;;24.59;49.21;101711.25;4932208;28;122879;-82
2022/07/29 08:30:04;;;;;;;;;;;;;;;24.77;48.04;101711.31;4958045;28;124300;-83
2022/07/29 08:32:31;;;;;;;;;;;;;;;24.85;46.67;101703.09;4947459;28;120870;-83
2022/07/29 08:34:56;;;;;;;;;;;;;;;24.88;46.63;101709.72;4947402;28;123013;-82
2022/07/29 08:37:22;;;;;;;;;;;;;;;24.95;47.41;101709.88;4944915;28;121641;-83
2022/07/29 08:39:47;;;;;;;;;;;;;;;25.01;47.01;101707.03;4967019;28;123083;-82
2022/07/29 08:42:13;;;;;;;;;;;;;;;25.11;47.80;101715.88;4945281;28;121628;-82
2022/07/29 08:44:58;;;;;;;;;;;;;;;25.22;47.24;101715.72;4940432;28;121803;-83
2022/07/29 08:47:27;;;;;;;;;;;;;;;25.31;46.99;101710.47;4936306;28;124625;-82
2022/07/29 08:49:53;;;;;;;;;;;;;;;25.36;45.93;101706.88;4959898;28;125367;-82
2022/07/29 08:52:21;;;;;;;;;;;;;;;25.43;45.76;101702.69;4942021;28;121641;-83
2022/07/29 08:54:49;;;;;;;;;;;;;;;25.45;44.76;101705.72;4962273;28;121990;-83
2022/07/29 08:57:16;;;;;;;;;;;;;;;25.45;45.16;101705.72;4919818;28;126100;-83
2022/07/29 08:59:45;;;;;;;;;;;;;;;25.49;44.85;101705.41;4945964;28;121619;-82
2022/07/29 09:02:14;;;;;;;;;;;;;;;25.48;44.13;101698.28;4946295;28;123488;-82
2022/07/29 09:04:40;;;;;;;;;;;;;;;25.50;43.74;101690.84;4942879;28;122441;-83
2022/07/29 09:07:05;;;;;;;;;;;;;;;25.49;43.71;101692.13;4941419;28;123374;-83
2022/07/29 09:09:32;;;;;;;;;;;;;;;25.45;43.63;101688.13;4933035;28;123096;-84
2022/07/29 09:11:59;;;;;;;;;;;;;;;25.41;43.64;101688.44;4944392;28;122463;-83
2022/07/29 09:14:25;;;;;;;;;;;;;;;25.41;44.42;101691.22;4956908;28;123957;-84
2022/07/29 09:16:54;;;;;;;;;;;;;;;25.48;44.90;101687.06;4944343;28;122166;-83
2022/07/29 09:19:25;;;;;;;;;;;;;;;25.56;44.85;101683.13;4924118;28;125307;-83
2022/07/29 09:22:00;;;;;;;;;;;;;;;25.65;44.40;101688.34;4939421;28;122074;-83
2022/07/29 09:24:25;;;;;;;;;;;;;;;25.72;43.36;101683.44;4926766;28;122684;-82
2022/07/29 09:26:51;;;;;;;;;;;;;;;25.69;42.52;101686.00;4924243;28;124476;-83
2022/07/29 09:29:18;;;;;;;;;;;;;;;25.66;42.72;101684.25;4942191;28;122439;-83
2022/07/29 09:31:45;;;;;;;;;;;;;;;25.68;42.98;101684.50;4941716;28;122594;-83
2022/07/29 09:34:11;;;;;;;;;;;;;;;25.72;43.39;101684.19;4929137;28;124384;-83
2022/07/29 09:36:40;;;;;;;;;;;;;;;25.80;44.08;101689.97;4944347;28;122244;-83
2022/07/29 09:39:05;;;;;;;;;;;;;;;25.89;43.96;101684.69;4930330;28;122149;-84
2022/07/29 09:41:43;;;;;;;;;;;;;;;25.93;42.98;101682.34;4926692;28;122866;-83
2022/07/29 09:44:09;;;;;;;;;;;;;;;25.90;43.33;101686.22;4926117;28;125331;-84
2022/07/29 09:46:35;;;;;;;;;;;;;;;25.93;43.55;101690.75;4916992;28;122646;-83
2022/07/29 09:49:10;;;;;;;;;;;;;;;25.87;43.80;101684.47;4942090;28;125052;-83
2022/07/29 09:51:40;;;;;;;;;;;;;;;25.76;43.89;101686.69;4927915;28;121989;-83
2022/07/29 09:54:21;;;;;;;;;;;;;;;25.61;44.10;101685.09;4943231;28;122103;-83
2022/07/29 09:56:50;;;;;;;;;;;;;;;25.43;44.59;101685.84;4946757;28;122486;-84
2022/07/29 09:59:20;;;;;;;;;;;;;;;25.28;44.98;101674.28;4926650;28;121878;-83
2022/07/29 10:01:45;;;;;;;;;;;;;;;25.18;45.58;101679.53;4934941;28;121926;-85
2022/07/29 10:04:11;;;;;;;;;;;;;;;25.05;45.82;101679.41;4947674;28;122419;-83
2022/07/29 10:06:54;;;;;;;;;;;;;;;25.06;46.13;101681.69;4949973;28;122345;-82
2022/07/29 10:09:20;;;;;;;;;;;;;;;25.16;45.36;101672.91;4902668;28;125169;-83
2022/07/29 10:12:02;;;;;;;;;;;;;;;25.27;45.26;101672.75;4935532;28;121760;-83
2022/07/29 10:14:28;;;;;;;;;;;;;;;25.38;45.30;101675.44;4949415;28;122103;-83
2022/07/29 10:16:54;;;;;;;;;;;;;;;25.33;45.19;101673.47;4947474;28;122697;-83
2022/07/29 10:19:20;;;;;;;;;;;;;;;25.20;45.62;101676.19;4948230;28;121681;-82
2022/07/29 10:21:48;;;;;;;;;;;;;;;25.09;45.32;101675.03;4927433;28;122609;-83
2022/07/29 10:24:14;;;;;;;;;;;;;;;25.07;45.56;101674.03;4929341;28;125047;-83
2022/07/29 10:27:07;;;;;;;;;;;;;;;25.19;45.71;101666.25;4922831;28;122001;-83
2022/07/29 10:29:33;;;;;;;;;;;;;;;25.35;45.00;101665.28;4915218;28;123903;-85
2022/07/29 10:32:13;;;;;;;;;;;;;;;25.49;45.27;101660.47;4932283;28;121844;-83
2022/07/29 10:34:51;;;;;;;;;;;;;;;25.63;44.67;101674.06;4934869;28;122699;-82
2022/07/29 10:37:26;;;;;;;;;;;;;;;25.81;44.53;101666.94;4944085;28;122768;-83
2022/07/29 10:42:55;;;;;;;;;;;;;;;25.93;42.62;101661.91;4941334;28;121872;-83
2022/07/29 10:45:21;;;;;;;;;;;;;;;26.01;42.51;101660.72;4927572;28;125615;-82
2022/07/29 10:47:46;;;;;;;;;;;;;;;25.93;41.74;101656.28;4921227;28;122070;-83
2022/07/29 10:50:12;;;;;;;;;;;;;;;25.86;42.10;101663.28;4940233;28;122236;-82
2022/07/29 10:52:49;;;;;;;;;;;;;;;25.78;41.94;101661.63;4944655;28;122242;-83
2022/07/29 10:55:44;;;;;;;;;;;;;;;25.67;41.75;101656.94;4914036;28;124349;-83
2022/07/29 10:58:14;;;;;;;;;;;;;;;25.68;42.44;101662.00;4935193;28;123134;-83
2022/07/29 11:00:40;;;;;;;;;;;;;;;25.80;41.91;101656.25;4944610;28;121855;-83
2022/07/29 11:03:05;;;;;;;;;;;;;;;25.90;41.96;101660.16;4945631;28;122504;-83
2022/07/29 11:05:50;;;;;;;;;;;;;;;26.05;41.67;101654.81;4943466;28;123117;-83
2022/07/29 11:08:22;;;;;;;;;;;;;;;26.12;41.56;101651.38;4935901;28;122585;-83
2022/07/29 11:10:49;;;;;;;;;;;;;;;26.19;40.91;101655.59;4925082;28;123878;-83
2022/07/29 11:13:33;;;;;;;;;;;;;;;26.20;40.35;101657.88;4945086;28;126812;-82
2022/07/29 11:15:58;;;;;;;;;;;;;;;26.29;40.61;101657.47;4931272;28;122370;-82
2022/07/29 11:18:24;;;;;;;;;;;;;;;26.40;40.29;101656.53;4941198;28;125593;-82
2022/07/29 11:20:53;;;;;;;;;;;;;;;26.52;40.22;101657.09;4929966;28;122224;-83
2022/07/29 11:23:39;;;;;;;;;;;;;;;26.59;39.61;101651.56;4946040;28;123943;-82
2022/07/29 11:26:14;;;;;;;;;;;;;;;26.58;38.67;101650.06;4947827;28;122383;-82
2022/07/29 11:28:40;;;;;;;;;;;;;;;26.58;38.66;101652.13;4944297;28;122949;-82
2022/07/29 11:31:07;;;;;;;;;;;;;;;26.61;39.34;101651.78;4945687;28;123975;-83
2022/07/29 11:33:35;;;;;;;;;;;;;;;26.64;38.87;101649.19;4944663;28;125514;-82
2022/07/29 11:36:08;;;;;;;;;;;;;;;26.54;37.92;101643.25;4945012;28;122392;-82
2022/07/29 11:38:33;;;;;;;;;;;;;;;26.48;38.50;101651.78;4940178;28;123916;-83
2022/07/29 11:41:17;;;;;;;;;;;;;;;26.55;39.05;101642.72;4962946;28;122463;-83
2022/07/29 11:43:46;;;;;;;;;;;;;;;26.77;39.96;101643.59;4945491;28;122421;-83
2022/07/29 11:46:39;;;;;;;;;;;;;;;26.96;39.77;101647.00;4943693;28;125014;-82
2022/07/29 11:49:05;;;;;;;;;;;;;;;26.93;40.19;101634.78;4945043;28;122899;-83
2022/07/29 11:51:31;;;;;;;;;;;;;;;26.79;38.90;101655.81;4952350;28;125185;-82
2022/07/29 11:53:57;;;;;;;;;;;;;;;26.56;39.22;101643.47;4944301;28;122417;-82
2022/07/29 11:56:23;;;;;;;;;;;;;;;26.46;40.31;101648.75;4923995;28;122388;-83
2022/07/29 11:58:49;;;;;;;;;;;;;;;26.42;40.40;101637.06;4950883;28;122232;-82
2022/07/29 12:01:16;;;;;;;;;;;;;;;26.38;40.93;101647.13;4952148;28;122261;-82
2022/07/29 12:04:17;;;;;;;;;;;;;;;26.24;41.20;101647.06;4863808;28;123999;-82
2022/07/29 12:06:48;;;;;;;;;;;;;;;26.16;41.43;101654.63;4928911;28;125610;-82
2022/07/29 12:09:17;;;;;;;;;;;;;;;26.06;41.43;101655.56;4944939;28;123179;-83
2022/07/29 12:11:43;;;;;;;;;;;;;;;25.92;42.07;101651.94;4938200;28;123063;-83
2022/07/29 12:14:08;;;;;;;;;;;;;;;25.79;42.14;101658.28;4911593;28;124207;-83
2022/07/29 12:16:36;;;;;;;;;;;;;;;25.66;42.70;101647.72;4920955;28;122713;-82
2022/07/29 12:19:03;;;;;;;;;;;;;;;25.59;42.88;101651.16;4943129;28;122773;-82
2022/07/29 12:21:42;;;;;;;;;;;;;;;25.51;42.93;101653.03;4949403;28;122988;-82
2022/07/29 12:24:08;;;;;;;;;;;;;;;25.39;42.57;101646.81;4942438;28;122081;-83
2022/07/29 12:26:54;;;;;;;;;;;;;;;25.32;42.08;101647.44;4923930;28;123177;-84
2022/07/29 12:29:19;;;;;;;;;;;;;;;25.26;41.60;101648.78;4948671;28;122649;-83
2022/07/29 12:31:46;;;;;;;;;;;;;;;25.23;41.57;101649.84;4932384;28;123949;-83
2022/07/29 12:34:15;;;;;;;;;;;;;;;25.27;41.83;101644.69;4945922;28;125998;-82
2022/07/29 12:36:43;;;;;;;;;;;;;;;25.32;40.82;101652.31;4949078;28;122390;-83